createdAt,value
2023-01-17T00:02:13.608Z,92.40
2023-01-17T00:05:00.851Z,90.74
2023-01-17T00:07:47.437Z,90.16
2023-01-17T00:10:18.999Z,90.00
2023-01-17T00:12:49.004Z,89.48
2023-01-17T00:15:19.824Z,88.36
2023-01-17T00:17:48.860Z,87.30
2023-01-17T00:20:39.564Z,86.22
2023-01-17T00:23:25.550Z,85.96
2023-01-17T00:26:06.586Z,86.03
2023-01-17T00:28:36.873Z,86.56
2023-01-17T00:31:06.478Z,86.14
2023-01-17T00:33:34.029Z,86.02
2023-01-17T00:36:04.474Z,86.14
2023-01-17T00:38:34.180Z,85.83
2023-01-17T00:41:07.174Z,84.85
2023-01-17T00:43:53.536Z,84.77
2023-01-17T00:46:40.466Z,84.45
2023-01-17T00:49:27.071Z,85.23
2023-01-17T00:52:14.353Z,84.08
2023-01-17T00:55:00.646Z,83.12
2023-01-17T00:57:46.780Z,82.79
2023-01-17T01:00:33.724Z,82.57
2023-01-17T01:03:19.785Z,82.58
2023-01-17T01:06:05.698Z,82.36
2023-01-17T01:08:52.760Z,81.57
2023-01-17T01:11:40.296Z,81.04
2023-01-17T01:14:28.696Z,80.15
2023-01-17T01:17:14.558Z,79.66
2023-01-17T01:20:00.362Z,79.86
2023-01-17T01:22:46.283Z,80.25
2023-01-17T01:25:33.898Z,80.28
2023-01-17T01:28:24.809Z,80.48
2023-01-17T01:31:10.737Z,80.46
2023-01-17T01:33:39.185Z,80.17
2023-01-17T01:36:09.898Z,79.97
2023-01-17T01:38:38.880Z,79.92
2023-01-17T01:41:08.715Z,79.99
2023-01-17T01:43:47.439Z,79.71
2023-01-17T01:46:22.648Z,79.68
2023-01-17T01:48:56.547Z,80.13
2023-01-17T01:51:30.934Z,79.33
2023-01-17T01:54:05.911Z,79.53
2023-01-17T01:56:36.066Z,80.16
2023-01-17T01:59:08.987Z,79.99
2023-01-17T02:01:38.230Z,79.97
2023-01-17T02:04:09.960Z,79.80
2023-01-17T02:06:41.420Z,79.84
2023-01-17T02:09:13.251Z,79.72
2023-01-17T02:11:43.351Z,79.90
2023-01-17T02:14:17.427Z,80.26
2023-01-17T02:17:02.384Z,79.81
2023-01-17T02:20:29.197Z,80.08
2023-01-17T02:23:46.240Z,79.26
2023-01-17T02:26:56.898Z,77.11
2023-01-17T02:30:17.953Z,74.65
2023-01-17T02:33:02.979Z,73.22
2023-01-17T02:35:43.850Z,72.37
2023-01-17T02:38:25.475Z,71.89
2023-01-17T02:40:58.973Z,70.92
2023-01-17T02:43:28.397Z,71.28
2023-01-17T02:45:58.253Z,72.29
2023-01-17T02:48:31.266Z,72.76
2023-01-17T02:51:39.030Z,72.99
2023-01-17T02:54:33.554Z,73.50
2023-01-17T02:57:28.677Z,74.23
2023-01-17T03:00:05.887Z,74.75
2023-01-17T03:02:43.565Z,75.04
2023-01-17T03:05:17.514Z,75.53
2023-01-17T03:07:48.346Z,75.86
2023-01-17T03:10:19.328Z,75.29
2023-01-17T03:12:47.809Z,75.52
2023-01-17T03:15:18.810Z,74.97
2023-01-17T03:17:51.810Z,74.61
2023-01-17T03:20:22.541Z,74.11
2023-01-17T03:22:51.480Z,73.95
2023-01-17T03:25:20.044Z,73.67
2023-01-17T03:27:48.648Z,73.97
2023-01-17T03:30:17.791Z,74.06
2023-01-17T03:32:48.617Z,73.47
2023-01-17T03:35:17.322Z,73.31
2023-01-17T03:37:45.603Z,72.79
2023-01-17T03:40:14.225Z,72.49
2023-01-17T03:42:42.832Z,71.75
2023-01-17T03:45:12.538Z,71.45
2023-01-17T03:47:40.987Z,71.52
2023-01-17T03:50:13.267Z,71.61
2023-01-17T03:52:41.732Z,71.38
2023-01-17T03:55:11.247Z,71.09
2023-01-17T03:57:39.651Z,71.06
2023-01-17T04:00:09.932Z,71.07
2023-01-17T04:02:38.518Z,71.04
2023-01-17T04:05:07.762Z,70.91
2023-01-17T04:07:37.457Z,70.74
2023-01-17T04:10:07.744Z,71.35
2023-01-17T04:12:36.050Z,71.66
2023-01-17T04:15:04.579Z,71.63
2023-01-17T04:17:33.015Z,72.11
2023-01-17T04:20:01.337Z,72.47
2023-01-17T04:22:31.604Z,72.38
2023-01-17T04:25:01.398Z,72.79
2023-01-17T04:27:31.249Z,72.78
2023-01-17T04:29:59.669Z,72.44
2023-01-17T04:32:29.283Z,72.13
2023-01-17T04:34:57.616Z,72.19
2023-01-17T04:37:25.980Z,71.66
2023-01-17T04:39:54.282Z,71.72
2023-01-17T04:42:23.993Z,71.63
2023-01-17T04:44:52.397Z,70.98
2023-01-17T04:47:20.713Z,70.93
2023-01-17T04:49:49.194Z,70.80
2023-01-17T04:52:18.701Z,70.84
2023-01-17T04:54:49.343Z,70.50
2023-01-17T04:57:18.259Z,70.22
2023-01-17T04:59:48.256Z,69.80
2023-01-17T05:02:16.812Z,69.32
2023-01-17T05:04:45.179Z,69.44
2023-01-17T05:07:13.684Z,68.83
2023-01-17T05:09:43.680Z,68.86
2023-01-17T05:12:12.069Z,68.70
2023-01-17T05:14:40.435Z,68.51
2023-01-17T05:17:11.292Z,68.90
2023-01-17T05:19:39.921Z,69.05
2023-01-17T05:22:14.912Z,68.96
2023-01-17T05:24:44.036Z,69.43
2023-01-17T05:27:13.560Z,69.25
2023-01-17T05:29:42.310Z,69.09
2023-01-17T05:32:12.196Z,69.06
2023-01-17T05:34:40.679Z,69.05
2023-01-17T05:37:08.956Z,69.02
2023-01-17T05:39:37.259Z,69.92
2023-01-17T05:42:06.042Z,69.02
2023-01-17T05:44:34.379Z,68.82
2023-01-17T05:47:02.711Z,69.08
2023-01-17T05:49:32.358Z,68.60
2023-01-17T05:52:00.713Z,67.82
2023-01-17T05:54:28.958Z,67.68
2023-01-17T05:56:57.250Z,67.39
2023-01-17T05:59:36.479Z,66.96
2023-01-17T06:02:05.979Z,66.88
2023-01-17T06:04:35.799Z,67.04
2023-01-17T06:07:04.188Z,67.19
2023-01-17T06:09:32.555Z,67.20
2023-01-17T06:12:00.930Z,66.98
2023-01-17T06:14:29.303Z,66.32
2023-01-17T06:16:57.712Z,66.69
2023-01-17T06:19:26.208Z,66.18
2023-01-17T06:21:55.880Z,66.21
2023-01-17T06:24:24.272Z,66.75
2023-01-17T06:26:52.741Z,66.14
2023-01-17T06:29:21.129Z,66.13
2023-01-17T06:31:49.560Z,66.29
2023-01-17T06:34:18.078Z,66.30
2023-01-17T06:36:46.524Z,66.24
2023-01-17T06:39:16.255Z,66.14
2023-01-17T06:41:44.746Z,66.05
2023-01-17T06:44:13.438Z,66.00
2023-01-17T06:46:41.876Z,65.78
2023-01-17T06:49:10.208Z,65.88
2023-01-17T06:51:38.530Z,66.06
2023-01-17T06:54:07.013Z,66.19
2023-01-17T06:56:37.075Z,65.76
2023-01-17T06:59:08.742Z,65.94
2023-01-17T07:01:37.262Z,66.36
2023-01-17T07:04:05.983Z,66.44
2023-01-17T07:06:36.697Z,66.78
2023-01-17T07:09:05.738Z,66.62
2023-01-17T07:11:34.209Z,66.78
2023-01-17T07:14:03.979Z,66.42
2023-01-17T07:16:32.312Z,66.37
2023-01-17T07:19:00.646Z,66.31
2023-01-17T07:21:29.131Z,66.52
2023-01-17T07:23:57.367Z,66.92
2023-01-17T07:26:25.769Z,66.57
2023-01-17T07:28:54.064Z,66.76
2023-01-17T07:31:23.779Z,66.45
2023-01-17T07:33:52.612Z,66.50
2023-01-17T07:36:20.924Z,66.37
2023-01-17T07:38:49.223Z,66.02
2023-01-17T07:41:17.641Z,66.49
2023-01-17T07:43:46.265Z,66.26
2023-01-17T07:46:15.269Z,66.47
2023-01-17T07:48:45.159Z,66.39
2023-01-17T07:51:13.697Z,66.62
2023-01-17T07:53:42.125Z,66.46
2023-01-17T07:56:10.786Z,66.86
2023-01-17T07:58:39.154Z,67.62
2023-01-17T08:01:10.130Z,67.57
2023-01-17T08:03:40.707Z,68.01
2023-01-17T08:06:19.084Z,66.70
2023-01-17T08:08:47.875Z,65.75
2023-01-17T08:11:16.756Z,65.72
2023-01-17T08:13:45.121Z,65.55
2023-01-17T08:16:14.308Z,65.11
2023-01-17T08:18:43.180Z,65.23
2023-01-17T08:21:17.732Z,64.45
2023-01-17T08:23:49.733Z,64.45
2023-01-17T08:26:22.430Z,64.30
2023-01-17T08:28:56.193Z,64.29
2023-01-17T08:31:24.824Z,65.11
2023-01-17T08:33:53.231Z,65.39
2023-01-17T08:36:25.620Z,65.61
2023-01-17T08:38:54.221Z,65.94
2023-01-17T08:41:24.270Z,66.64
2023-01-17T08:43:53.519Z,67.33
2023-01-17T08:46:22.429Z,67.04
2023-01-17T08:48:56.625Z,67.11
2023-01-17T08:51:27.927Z,65.84
2023-01-17T08:53:57.558Z,65.54
2023-01-17T08:56:27.255Z,65.29
2023-01-17T08:58:55.713Z,64.77
2023-01-17T09:01:24.292Z,65.25
2023-01-17T09:03:52.882Z,65.52
2023-01-17T09:06:21.358Z,65.01
2023-01-17T09:08:55.086Z,65.14
2023-01-17T09:11:23.422Z,63.54
2023-01-17T09:13:51.785Z,62.96
2023-01-17T09:16:20.175Z,62.56
2023-01-17T09:18:48.458Z,62.24
2023-01-17T09:21:18.844Z,62.55
2023-01-17T09:23:47.711Z,63.04
2023-01-17T09:26:21.599Z,62.28
2023-01-17T09:28:50.358Z,63.03
2023-01-17T09:31:21.388Z,62.86
2023-01-17T09:33:50.364Z,62.29
2023-01-17T09:36:19.372Z,63.01
2023-01-17T09:38:48.210Z,62.90
2023-01-17T09:41:27.885Z,63.10
2023-01-17T09:44:06.744Z,63.00
2023-01-17T09:46:43.406Z,62.60
2023-01-17T09:49:33.410Z,63.00
2023-01-17T09:52:04.147Z,62.77
2023-01-17T09:54:36.924Z,62.52
2023-01-17T09:57:20.156Z,62.02
2023-01-17T10:00:03.219Z,62.07
2023-01-17T10:02:56.202Z,61.25
2023-01-17T10:05:39.140Z,61.71
2023-01-17T10:08:21.653Z,61.33
2023-01-17T10:11:12.177Z,61.50
2023-01-17T10:13:55.901Z,61.19
2023-01-17T10:16:40.475Z,61.09
2023-01-17T10:19:32.371Z,58.99
2023-01-17T10:22:21.010Z,58.29
2023-01-17T10:25:14.691Z,56.96
2023-01-17T10:27:48.714Z,55.72
2023-01-17T10:30:25.808Z,54.76
2023-01-17T10:32:56.488Z,55.04
2023-01-17T10:35:29.362Z,53.76
2023-01-17T10:37:59.778Z,52.78
2023-01-17T10:40:36.028Z,52.06
2023-01-17T10:43:14.235Z,52.06
2023-01-17T10:45:52.748Z,51.89
2023-01-17T10:48:35.965Z,51.96
2023-01-17T10:51:27.819Z,52.57
2023-01-17T10:54:15.266Z,53.21
2023-01-17T10:56:43.709Z,53.32
2023-01-17T10:59:23.094Z,53.13
2023-01-17T11:01:52.904Z,53.36
2023-01-17T11:04:25.107Z,53.32
2023-01-17T11:07:16.561Z,53.63
2023-01-17T11:09:46.737Z,53.38
2023-01-17T11:12:22.298Z,53.23
2023-01-17T11:15:02.723Z,52.65
2023-01-17T11:17:34.914Z,52.47
2023-01-17T11:20:28.121Z,51.37
2023-01-17T11:23:15.258Z,51.13
2023-01-17T11:25:51.472Z,49.46
2023-01-17T11:28:26.206Z,49.00
2023-01-17T11:30:57.345Z,49.57
2023-01-17T11:33:53.844Z,48.59
2023-01-17T11:36:24.646Z,49.67
2023-01-17T11:39:02.783Z,49.52
2023-01-17T11:41:36.398Z,48.13
2023-01-17T11:44:22.507Z,47.92
2023-01-17T11:47:08.804Z,46.15
2023-01-17T11:49:41.839Z,45.85
2023-01-17T11:52:11.397Z,47.00
2023-01-17T11:54:42.577Z,48.36
2023-01-17T11:57:25.686Z,47.28
2023-01-17T12:00:04.025Z,48.24
2023-01-17T12:03:07.190Z,49.25
2023-01-17T12:05:53.690Z,49.46
2023-01-17T12:08:51.239Z,48.26
2023-01-17T12:11:30.352Z,47.24
2023-01-17T12:14:08.965Z,47.93
2023-01-17T12:17:08.029Z,49.72
2023-01-17T12:20:00.931Z,49.36
2023-01-17T12:23:13.900Z,50.16
2023-01-17T12:26:09.470Z,47.77
2023-01-17T12:29:01.235Z,48.61
2023-01-17T12:31:35.097Z,49.18
2023-01-17T12:34:20.549Z,50.19
2023-01-17T12:36:53.930Z,49.92
2023-01-17T12:39:32.420Z,48.41
2023-01-17T12:42:06.808Z,46.74
2023-01-17T12:44:57.848Z,45.94
2023-01-17T12:47:27.289Z,46.04
2023-01-17T12:50:06.678Z,46.37
2023-01-17T12:52:48.651Z,45.97
2023-01-17T12:55:37.262Z,45.24
2023-01-17T12:58:14.013Z,43.90
2023-01-17T13:00:47.396Z,43.58
2023-01-17T13:03:26.980Z,44.43
2023-01-17T13:05:58.898Z,44.74
2023-01-17T13:08:38.817Z,44.49
2023-01-17T13:11:17.158Z,45.02
2023-01-17T13:13:47.278Z,44.28
2023-01-17T13:16:22.829Z,44.18
2023-01-17T13:18:53.603Z,44.27
2023-01-17T13:21:30.132Z,44.41
2023-01-17T13:24:26.112Z,43.26
2023-01-17T13:27:46.608Z,43.69
2023-01-17T13:30:43.448Z,43.50
2023-01-17T13:33:31.419Z,44.06
2023-01-17T13:36:21.095Z,43.73
2023-01-17T13:39:13.397Z,44.46
2023-01-17T13:41:51.751Z,44.04
2023-01-17T13:44:24.723Z,43.80
2023-01-17T13:46:59.828Z,44.40
2023-01-17T13:49:46.260Z,44.89
2023-01-17T13:52:33.510Z,43.45
2023-01-17T13:55:04.534Z,43.69
2023-01-17T13:57:41.856Z,42.71
2023-01-17T14:01:00.328Z,42.81
2023-01-17T14:04:04.557Z,43.73
2023-01-17T14:06:40.598Z,43.93
2023-01-17T14:09:33.418Z,43.09
2023-01-17T14:12:23.975Z,42.45
2023-01-17T14:14:56.901Z,42.36
2023-01-17T14:17:58.894Z,42.74
2023-01-17T14:20:56.128Z,43.00
2023-01-17T14:23:34.376Z,43.29
2023-01-17T14:26:43.285Z,43.45
2023-01-17T14:29:56.829Z,43.18
2023-01-17T14:32:31.472Z,43.38
2023-01-17T14:35:01.403Z,44.33
2023-01-17T14:37:42.827Z,45.01
2023-01-17T14:40:21.699Z,44.86
2023-01-17T14:43:00.407Z,46.24
2023-01-17T14:45:31.502Z,46.39
2023-01-17T14:48:03.000Z,47.62
2023-01-17T14:50:41.602Z,48.10
2023-01-17T14:53:21.434Z,48.19
2023-01-17T14:55:59.442Z,48.10
2023-01-17T14:58:31.400Z,48.07
2023-01-17T15:01:03.015Z,48.16
2023-01-17T15:03:41.592Z,48.37
2023-01-17T15:06:18.440Z,47.82
2023-01-17T15:08:48.003Z,48.06
2023-01-17T15:11:25.203Z,47.41
2023-01-17T15:13:57.445Z,46.72
2023-01-17T15:16:28.337Z,47.15
2023-01-17T15:18:58.237Z,47.27
2023-01-17T15:21:31.423Z,47.49
2023-01-17T15:24:02.237Z,46.35
2023-01-17T15:26:35.801Z,45.83
2023-01-17T15:29:07.719Z,45.99
2023-01-17T15:31:43.479Z,46.04
2023-01-17T15:34:23.854Z,46.00
2023-01-17T15:36:56.915Z,46.08
2023-01-17T15:39:30.279Z,46.77
2023-01-17T15:42:00.727Z,47.30
2023-01-17T15:44:47.565Z,46.85
2023-01-17T15:47:30.804Z,47.44
2023-01-17T15:50:00.805Z,47.61
2023-01-17T15:52:30.932Z,48.00
2023-01-17T15:55:01.450Z,48.79
2023-01-17T15:57:36.686Z,49.60
2023-01-17T16:00:09.318Z,49.94
2023-01-17T16:02:43.574Z,49.34
2023-01-17T16:05:41.939Z,49.94
2023-01-17T16:08:40.504Z,50.60
2023-01-17T16:11:13.458Z,50.98
2023-01-17T16:13:43.512Z,52.41
2023-01-17T16:16:19.193Z,53.59
2023-01-17T16:18:48.829Z,54.45
2023-01-17T16:21:24.956Z,54.76
2023-01-17T16:23:55.160Z,54.30
2023-01-17T16:26:24.356Z,53.95
2023-01-17T16:28:52.994Z,54.36
2023-01-17T16:31:22.074Z,55.63
2023-01-17T16:33:51.678Z,56.56
2023-01-17T16:36:21.383Z,57.65
2023-01-17T16:38:52.732Z,56.50
2023-01-17T16:41:22.932Z,56.55
2023-01-17T16:44:00.726Z,56.49
2023-01-17T16:46:30.597Z,56.42
2023-01-17T16:49:03.152Z,56.89
2023-01-17T16:51:31.909Z,57.10
2023-01-17T16:54:00.457Z,56.93
2023-01-17T16:56:30.547Z,57.09
2023-01-17T16:58:58.915Z,56.32
2023-01-17T17:01:27.335Z,57.33
2023-01-17T17:03:56.757Z,58.25
2023-01-17T17:06:25.208Z,58.70
2023-01-17T17:08:53.783Z,59.38
2023-01-17T17:11:23.844Z,58.69
2023-01-17T17:13:54.267Z,58.23
2023-01-17T17:16:27.325Z,58.55
2023-01-17T17:18:58.098Z,57.80
2023-01-17T17:21:27.355Z,57.67
2023-01-17T17:23:58.002Z,57.60
2023-01-17T17:26:28.867Z,57.53
2023-01-17T17:28:59.034Z,57.38
2023-01-17T17:31:27.978Z,57.29
2023-01-17T17:34:00.501Z,56.97
2023-01-17T17:36:29.813Z,57.63
2023-01-17T17:38:59.273Z,57.33
2023-01-17T17:41:29.633Z,57.60
2023-01-17T17:44:00.803Z,57.94
2023-01-17T17:46:30.110Z,58.10
2023-01-17T17:48:59.888Z,58.57
2023-01-17T17:51:31.317Z,58.26
2023-01-17T17:54:02.034Z,58.41
2023-01-17T17:56:32.241Z,58.55
2023-01-17T17:59:03.467Z,58.34
2023-01-17T18:01:32.272Z,58.21
2023-01-17T18:04:03.903Z,58.02
2023-01-17T18:06:32.285Z,58.35
2023-01-17T18:09:00.573Z,59.38
2023-01-17T18:11:30.040Z,59.82
2023-01-17T18:14:03.170Z,59.92
2023-01-17T18:16:35.484Z,60.40
2023-01-17T18:19:05.500Z,60.43
2023-01-17T18:21:36.118Z,60.82
2023-01-17T18:24:09.306Z,61.02
2023-01-17T18:26:40.224Z,61.51
2023-01-17T18:29:14.740Z,61.90
2023-01-17T18:31:44.413Z,62.15
2023-01-17T18:34:15.067Z,61.99
2023-01-17T18:36:43.412Z,61.86
2023-01-17T18:39:14.455Z,61.84
2023-01-17T18:41:43.321Z,62.05
2023-01-17T18:44:13.655Z,61.68
2023-01-17T18:46:43.158Z,61.71
2023-01-17T18:49:12.948Z,61.53
2023-01-17T18:51:43.086Z,61.63
2023-01-17T18:54:11.480Z,60.98
2023-01-17T18:56:39.819Z,61.25
2023-01-17T18:59:09.735Z,61.02
2023-01-17T19:01:42.230Z,60.79
2023-01-17T19:04:12.837Z,60.67
2023-01-17T19:06:44.054Z,60.67
2023-01-17T19:09:15.301Z,60.88
2023-01-17T19:11:45.070Z,61.28
2023-01-17T19:14:14.504Z,61.70
2023-01-17T19:16:45.311Z,61.66
2023-01-17T19:19:16.081Z,61.98
2023-01-17T19:21:44.772Z,62.09
2023-01-17T19:24:14.402Z,61.88
2023-01-17T19:26:43.247Z,61.72
2023-01-17T19:29:12.363Z,61.86
2023-01-17T19:31:42.966Z,62.09
2023-01-17T19:34:15.918Z,62.42
2023-01-17T19:36:44.701Z,62.22
2023-01-17T19:39:13.249Z,62.62
2023-01-17T19:41:45.171Z,62.72
2023-01-17T19:44:15.666Z,62.45
2023-01-17T19:46:46.070Z,62.25
2023-01-17T19:49:19.680Z,62.73
2023-01-17T19:51:49.604Z,63.03
2023-01-17T19:54:18.253Z,62.96
2023-01-17T19:56:46.723Z,62.67
2023-01-17T19:59:15.469Z,62.70
2023-01-17T20:01:44.116Z,62.64
2023-01-17T20:04:13.449Z,62.76
2023-01-17T20:06:43.148Z,62.50
2023-01-17T20:09:11.554Z,62.74
2023-01-17T20:11:42.472Z,62.55
2023-01-17T20:14:16.541Z,61.97
2023-01-17T20:16:47.529Z,61.66
2023-01-17T20:19:16.215Z,61.35
2023-01-17T20:21:45.998Z,61.58
2023-01-17T20:24:16.716Z,61.59
2023-01-17T20:26:45.058Z,61.65
2023-01-17T20:29:19.666Z,61.54
2023-01-17T20:31:52.375Z,61.50
2023-01-17T20:34:21.210Z,61.65
2023-01-17T20:36:51.093Z,61.80
2023-01-17T20:39:20.262Z,61.79
2023-01-17T20:41:51.705Z,62.09
2023-01-17T20:44:20.410Z,62.45
2023-01-17T20:46:49.092Z,62.93
2023-01-17T20:49:20.081Z,63.13
2023-01-17T20:51:50.062Z,63.25
2023-01-17T20:54:20.297Z,63.42
2023-01-17T20:56:49.124Z,63.66
2023-01-17T20:59:20.274Z,63.40
2023-01-17T21:01:49.275Z,63.25
2023-01-17T21:04:22.908Z,63.05
2023-01-17T21:06:53.707Z,63.03
2023-01-17T21:09:22.431Z,62.79
2023-01-17T21:11:51.804Z,62.45
2023-01-17T21:14:21.859Z,62.50
2023-01-17T21:16:51.044Z,62.09
2023-01-17T21:19:20.434Z,62.09
2023-01-17T21:21:50.214Z,61.78
2023-01-17T21:24:20.153Z,61.75
2023-01-17T21:26:51.359Z,61.29
2023-01-17T21:29:19.940Z,61.45
2023-01-17T21:31:48.239Z,61.71
2023-01-17T21:34:16.907Z,61.08
2023-01-17T21:36:45.438Z,61.39
2023-01-17T21:39:16.792Z,61.15
2023-01-17T21:41:49.519Z,61.59
2023-01-17T21:44:21.092Z,61.26
2023-01-17T21:46:54.183Z,61.40
2023-01-17T21:49:23.755Z,61.24
2023-01-17T21:52:09.894Z,61.39
2023-01-17T21:54:55.853Z,61.95
2023-01-17T21:57:43.014Z,62.82
2023-01-17T22:00:15.421Z,62.90
2023-01-17T22:02:44.668Z,63.56
2023-01-17T22:05:13.435Z,63.50
2023-01-17T22:08:02.460Z,63.41
2023-01-17T22:10:30.808Z,63.69
2023-01-17T22:13:00.492Z,63.77
2023-01-17T22:15:28.819Z,63.94
2023-01-17T22:17:57.496Z,63.81
2023-01-17T22:20:26.149Z,63.90
2023-01-17T22:22:54.848Z,63.69
2023-01-17T22:25:24.397Z,63.80
2023-01-17T22:27:52.978Z,63.54
2023-01-17T22:30:22.867Z,63.46
2023-01-17T22:32:51.279Z,63.47
2023-01-17T22:35:19.605Z,64.34
2023-01-17T22:37:48.082Z,65.02
2023-01-17T22:40:16.682Z,66.17
2023-01-17T22:42:45.071Z,65.84
2023-01-17T22:45:13.860Z,66.47
2023-01-17T22:47:43.560Z,65.79
2023-01-17T22:50:13.350Z,66.04
2023-01-17T22:52:41.942Z,66.17
2023-01-17T22:55:12.103Z,66.78
2023-01-17T22:57:40.409Z,66.67
2023-01-17T23:00:14.510Z,66.18
2023-01-17T23:02:44.654Z,65.97
2023-01-17T23:05:13.214Z,66.27
2023-01-17T23:07:44.325Z,66.13
2023-01-17T23:10:35.948Z,66.21
2023-01-17T23:13:04.336Z,65.63
2023-01-17T23:15:50.291Z,65.44
2023-01-17T23:18:37.559Z,65.29
2023-01-17T23:21:08.957Z,65.38
2023-01-17T23:23:37.269Z,65.38
2023-01-17T23:26:05.707Z,65.36
2023-01-17T23:28:33.080Z,65.22
2023-01-17T23:31:04.991Z,65.38
2023-01-17T23:33:34.696Z,65.09
2023-01-17T23:36:03.061Z,64.78
2023-01-17T23:38:33.819Z,64.67
2023-01-17T23:41:22.622Z,64.33
2023-01-17T23:43:55.390Z,64.37
2023-01-17T23:46:25.344Z,64.76
2023-01-17T23:48:55.826Z,64.83
2023-01-17T23:51:24.232Z,64.65
2023-01-17T23:53:57.329Z,64.75
2023-01-17T23:56:26.140Z,63.97
2023-01-17T23:58:54.486Z,64.31
